createdAt,value
2023-09-28T00:00:52.923Z,100349.50
2023-09-28T00:05:55.181Z,100345.50
2023-09-28T00:10:58.280Z,100352.75
2023-09-28T00:16:00.029Z,100343.06
2023-09-28T00:21:02.393Z,100352.84
2023-09-28T00:26:04.165Z,100345.31
2023-09-28T00:31:07.405Z,100347.22
2023-09-28T00:36:09.338Z,100352.44
2023-09-28T00:41:11.609Z,100346.38
2023-09-28T00:46:15.993Z,100342.38
2023-09-28T00:51:18.418Z,100337.97
2023-09-28T00:56:20.590Z,100336.69
2023-09-28T01:01:22.506Z,100333.09
2023-09-28T01:06:26.168Z,100335.53
2023-09-28T01:11:29.406Z,100345.84
2023-09-28T01:16:31.262Z,100343.16
2023-09-28T01:21:33.142Z,100339.25
2023-09-28T01:26:35.722Z,100351.19
2023-09-28T01:31:37.407Z,100339.41
2023-09-28T01:36:39.050Z,100348.38
2023-09-28T01:41:40.943Z,100353.78
2023-09-28T01:46:42.607Z,100345.84
2023-09-28T01:51:44.307Z,100343.72
2023-09-28T01:56:45.948Z,100351.44
2023-09-28T02:01:47.686Z,100349.00
2023-09-28T02:06:49.490Z,100344.44
2023-09-28T02:11:51.168Z,100332.81
2023-09-28T02:16:53.749Z,100337.13
2023-09-28T02:21:55.403Z,100341.75
2023-09-28T02:26:57.449Z,100341.69
2023-09-28T02:31:59.190Z,100335.78
2023-09-28T02:37:02.300Z,100341.19
2023-09-28T02:42:08.618Z,100339.16
2023-09-28T02:47:10.988Z,100333.56
2023-09-28T02:52:12.687Z,100344.72
2023-09-28T02:57:14.337Z,100341.28
2023-09-28T03:02:16.046Z,100351.53
2023-09-28T03:07:18.256Z,100364.34
2023-09-28T03:12:21.442Z,100372.81
2023-09-28T03:17:23.917Z,100379.09
2023-09-28T03:22:25.576Z,100382.81
2023-09-28T03:27:27.256Z,100385.88
2023-09-28T03:32:29.027Z,100388.00
2023-09-28T03:37:30.717Z,100390.03
2023-09-28T03:42:32.357Z,100384.47
2023-09-28T03:47:34.373Z,100390.63
2023-09-28T03:52:36.250Z,100393.75
2023-09-28T03:57:38.806Z,100397.72
2023-09-28T04:02:46.889Z,100396.75
2023-09-28T04:07:51.131Z,100389.16
2023-09-28T04:12:55.974Z,100393.00
2023-09-28T04:17:57.697Z,100397.72
2023-09-28T04:22:59.402Z,100390.81
2023-09-28T04:28:01.177Z,100392.19
2023-09-28T04:33:03.350Z,100394.69
2023-09-28T04:38:05.153Z,100394.41
2023-09-28T04:43:06.819Z,100397.28
2023-09-28T04:48:08.492Z,100394.59
2023-09-28T04:53:10.286Z,100388.88
2023-09-28T04:58:11.988Z,100396.91
2023-09-28T05:03:13.737Z,100400.22
2023-09-28T05:08:15.464Z,100404.47
2023-09-28T05:13:17.214Z,100399.41
2023-09-28T05:18:18.846Z,100405.31
2023-09-28T05:23:20.482Z,100406.09
2023-09-28T05:28:22.137Z,100401.22
2023-09-28T05:33:23.973Z,100407.88
2023-09-28T05:38:25.677Z,100415.03
2023-09-28T05:43:27.702Z,100412.38
2023-09-28T05:48:29.311Z,100419.66
2023-09-28T05:53:30.941Z,100428.44
2023-09-28T05:58:32.644Z,100433.69
2023-09-28T06:03:36.474Z,100437.97
2023-09-28T06:08:38.277Z,100449.50
2023-09-28T06:13:52.448Z,100452.63
2023-09-28T06:19:03.210Z,100454.94
2023-09-28T06:24:05.158Z,100458.25
2023-09-28T06:29:07.246Z,100456.22
2023-09-28T06:34:09.318Z,100466.38
2023-09-28T06:39:11.351Z,100466.06
2023-09-28T06:44:13.134Z,100480.31
2023-09-28T06:49:14.834Z,100475.31
2023-09-28T06:54:17.651Z,100471.28
2023-09-28T06:59:19.370Z,100467.91
2023-09-28T07:04:21.321Z,100467.13
2023-09-28T07:09:22.981Z,100472.41
2023-09-28T07:14:24.673Z,100481.13
2023-09-28T07:19:27.223Z,100482.84
2023-09-28T07:24:34.390Z,100469.78
2023-09-28T07:29:36.009Z,100466.94
2023-09-28T07:34:38.070Z,100479.34
2023-09-28T07:39:39.696Z,100462.78
2023-09-28T07:44:41.568Z,100481.06
2023-09-28T07:49:43.221Z,100478.78
2023-09-28T07:54:44.945Z,100477.78
2023-09-28T07:59:46.672Z,100479.28
2023-09-28T08:04:50.862Z,100488.69
2023-09-28T08:09:53.514Z,100491.66
2023-09-28T08:14:55.831Z,100494.75
2023-09-28T08:19:57.654Z,100496.50
2023-09-28T08:24:59.540Z,100501.19
2023-09-28T08:30:01.180Z,100500.94
2023-09-28T08:35:02.862Z,100491.66
2023-09-28T08:40:05.582Z,100504.19
2023-09-28T08:45:09.897Z,100496.91
2023-09-28T08:50:13.784Z,100497.09
2023-09-28T08:55:16.170Z,100491.72
2023-09-28T09:00:24.049Z,100485.25
2023-09-28T09:05:30.511Z,100483.63
2023-09-28T09:10:32.539Z,100484.69
2023-09-28T09:15:37.232Z,100471.28
2023-09-28T09:20:38.938Z,100480.69
2023-09-28T09:25:46.491Z,100468.16
2023-09-28T09:30:48.501Z,100474.22
2023-09-28T09:35:53.845Z,100481.75
2023-09-28T09:40:59.906Z,100472.78
2023-09-28T09:46:08.910Z,100470.44
2023-09-28T09:51:13.454Z,100460.78
2023-09-28T09:56:16.977Z,100465.81
2023-09-28T10:01:19.143Z,100459.53
2023-09-28T10:06:22.771Z,100466.59
2023-09-28T10:11:24.540Z,100464.91
2023-09-28T10:16:26.932Z,100460.31
2023-09-28T10:21:28.580Z,100468.25
2023-09-28T10:26:32.475Z,100459.41
2023-09-28T10:31:55.414Z,100461.09
2023-09-28T10:37:09.088Z,100457.75
2023-09-28T10:42:19.429Z,100447.28
2023-09-28T10:47:24.595Z,100453.31
2023-09-28T10:52:27.021Z,100440.28
2023-09-28T10:57:33.134Z,100449.88
2023-09-28T11:02:38.649Z,100447.31
2023-09-28T11:07:41.551Z,100450.03
2023-09-28T11:12:43.632Z,100450.25
2023-09-28T11:17:48.299Z,100452.03
2023-09-28T11:22:57.080Z,100452.47
2023-09-28T11:27:59.348Z,100446.94
2023-09-28T11:33:04.454Z,100450.53
2023-09-28T11:38:10.857Z,100449.69
2023-09-28T11:43:12.937Z,100435.28
2023-09-28T11:48:21.002Z,100426.41
2023-09-28T11:53:23.627Z,100422.13
2023-09-28T11:58:25.895Z,100416.28
2023-09-28T12:03:28.973Z,100425.94
2023-09-28T12:08:31.308Z,100426.69
2023-09-28T12:13:32.989Z,100423.34
2023-09-28T12:18:34.694Z,100426.63
2023-09-28T12:23:36.631Z,100426.63
2023-09-28T12:28:38.865Z,100422.44
2023-09-28T12:33:41.102Z,100421.22
2023-09-28T12:38:43.122Z,100419.69
2023-09-28T12:43:45.408Z,100423.81
2023-09-28T12:48:47.096Z,100421.88
2023-09-28T12:53:48.802Z,100413.00
2023-09-28T12:58:50.894Z,100410.22
2023-09-28T13:03:53.042Z,100403.81
2023-09-28T13:08:55.151Z,100392.47
2023-09-28T13:13:57.320Z,100392.69
2023-09-28T13:19:00.643Z,100396.41
2023-09-28T13:24:14.138Z,100397.72
2023-09-28T13:29:18.494Z,100389.19
2023-09-28T13:34:20.191Z,100375.31
2023-09-28T13:39:28.571Z,100377.44
2023-09-28T13:44:30.639Z,100370.00
2023-09-28T13:49:32.531Z,100379.41
2023-09-28T13:54:35.941Z,100383.50
2023-09-28T13:59:39.309Z,100372.59
2023-09-28T14:04:41.424Z,100379.03
2023-09-28T14:09:43.388Z,100387.44
2023-09-28T14:14:45.898Z,100381.03
2023-09-28T14:19:47.504Z,100359.38
2023-09-28T14:24:49.962Z,100372.78
2023-09-28T14:29:51.618Z,100370.50
2023-09-28T14:34:53.541Z,100357.69
2023-09-28T14:39:57.286Z,100353.75
2023-09-28T14:44:58.918Z,100359.38
2023-09-28T14:50:03.845Z,100354.03
2023-09-28T14:55:06.221Z,100353.91
2023-09-28T15:00:14.060Z,100351.41
2023-09-28T15:05:16.318Z,100361.53
2023-09-28T15:10:18.108Z,100361.94
2023-09-28T15:15:20.522Z,100359.41
2023-09-28T15:20:22.176Z,100359.38
2023-09-28T15:25:23.848Z,100358.03
2023-09-28T15:30:25.471Z,100357.56
2023-09-28T15:35:27.963Z,100353.84
2023-09-28T15:40:37.142Z,100358.94
2023-09-28T15:45:39.247Z,100351.59
2023-09-28T15:50:44.425Z,100355.59
2023-09-28T15:55:47.257Z,100356.06
2023-09-28T16:00:49.931Z,100367.28
2023-09-28T16:05:51.557Z,100379.72
2023-09-28T16:10:53.394Z,100374.63
2023-09-28T16:15:55.224Z,100386.19
2023-09-28T16:20:57.409Z,100384.69
2023-09-28T16:25:59.238Z,100382.44
2023-09-28T16:31:01.011Z,100384.56
2023-09-28T16:36:02.867Z,100373.72
2023-09-28T16:41:04.540Z,100370.00
2023-09-28T16:46:06.340Z,100377.41
2023-09-28T16:51:08.610Z,100398.34
2023-09-28T16:56:10.317Z,100390.16
2023-09-28T17:01:12.175Z,100396.66
2023-09-28T17:06:16.596Z,100390.72
2023-09-28T17:11:18.312Z,100400.63
2023-09-28T17:16:21.512Z,100395.00
2023-09-28T17:21:23.190Z,100396.56
2023-09-28T17:26:24.876Z,100388.63
2023-09-28T17:31:26.587Z,100383.44
2023-09-28T17:36:28.323Z,100386.38
2023-09-28T17:41:29.999Z,100394.22
2023-09-28T17:46:32.267Z,100397.59
2023-09-28T17:51:35.460Z,100398.50
2023-09-28T17:56:37.098Z,100406.06
2023-09-28T18:01:38.760Z,100410.31
2023-09-28T18:06:41.598Z,100407.03
2023-09-28T18:11:43.373Z,100411.28
2023-09-28T18:16:45.517Z,100421.34
2023-09-28T18:21:47.243Z,100436.00
2023-09-28T18:26:49.050Z,100435.63
2023-09-28T18:31:50.715Z,100440.69
2023-09-28T18:36:52.971Z,100444.88
2023-09-28T18:41:54.755Z,100445.53
2023-09-28T18:46:56.379Z,100452.41
2023-09-28T18:51:58.032Z,100462.06
2023-09-28T18:56:59.936Z,100453.28
2023-09-28T19:02:01.710Z,100456.22
2023-09-28T19:07:03.470Z,100454.38
2023-09-28T19:12:08.889Z,100458.13
2023-09-28T19:17:11.166Z,100456.25
2023-09-28T19:22:12.988Z,100460.81
2023-09-28T19:27:27.763Z,100459.78
2023-09-28T19:32:36.558Z,100465.03
2023-09-28T19:37:39.779Z,100464.16
2023-09-28T19:42:42.874Z,100465.22
2023-09-28T19:47:44.597Z,100458.31
2023-09-28T19:52:46.561Z,100461.66
2023-09-28T19:57:49.014Z,100456.81
2023-09-28T20:02:50.718Z,100459.56
2023-09-28T20:07:52.570Z,100462.06
2023-09-28T20:12:56.582Z,100457.00
2023-09-28T20:17:59.353Z,100455.50
2023-09-28T20:23:01.037Z,100456.06
2023-09-28T20:28:02.752Z,100453.94
2023-09-28T20:33:04.626Z,100459.53
2023-09-28T20:38:06.307Z,100465.53
2023-09-28T20:43:08.388Z,100469.91
2023-09-28T20:48:10.587Z,100462.78
2023-09-28T20:53:12.438Z,100459.59
2023-09-28T20:58:14.145Z,100461.22
2023-09-28T21:03:15.924Z,100461.59
2023-09-28T21:08:17.668Z,100475.28
2023-09-28T21:13:19.350Z,100472.38
2023-09-28T21:18:21.135Z,100465.88
2023-09-28T21:23:22.869Z,100467.69
2023-09-28T21:28:24.630Z,100466.59
2023-09-28T21:33:26.498Z,100466.13
2023-09-28T21:38:28.399Z,100469.41
2023-09-28T21:43:30.269Z,100466.47
2023-09-28T21:48:33.338Z,100456.41
2023-09-28T21:53:35.171Z,100472.78
2023-09-28T21:58:37.144Z,100465.47
2023-09-28T22:03:39.410Z,100470.88
2023-09-28T22:08:41.231Z,100462.47
2023-09-28T22:13:43.156Z,100467.66
2023-09-28T22:18:44.848Z,100461.56
2023-09-28T22:23:46.586Z,100462.16
2023-09-28T22:28:48.305Z,100465.06
2023-09-28T22:33:50.064Z,100474.16
2023-09-28T22:38:51.756Z,100474.06
2023-09-28T22:43:53.419Z,100470.34
2023-09-28T22:48:58.047Z,100483.81
2023-09-28T22:53:59.830Z,100481.94
2023-09-28T22:59:01.444Z,100486.06
2023-09-28T23:04:03.484Z,100485.41
2023-09-28T23:09:05.186Z,100485.94
2023-09-28T23:14:08.192Z,100491.75
2023-09-28T23:19:09.925Z,100486.25
2023-09-28T23:24:14.764Z,100488.31
2023-09-28T23:29:16.612Z,100492.25
2023-09-28T23:34:20.427Z,100490.75
2023-09-28T23:39:22.090Z,100483.19
2023-09-28T23:44:23.792Z,100477.34
2023-09-28T23:49:28.203Z,100479.16
2023-09-28T23:54:30.151Z,100489.69
2023-09-28T23:59:31.876Z,100487.34
